Time;durP1;ratioP1;P1;durP2;ratioP2;P2;SDS_P1;SDS_P2;PMS_P1;PMS_P2;Temp;Humidity;BMP_temperature;BMP_pressure;BME280_temperature;BME280_humidity;BME280_pressure;Samples;Min_cycle;Max_cycle;Signal;HPM_P1;HPM_P2
2023/05/04 00:00:10;;;;;;;8.30;5.93;;;;;;;14.63;51.00;97936.94;5028298;28;20644;-70
2023/05/04 00:02:35;;;;;;;9.07;5.90;;;;;;;14.42;51.24;97929.47;5030447;28;20600;-71
2023/05/04 00:05:03;;;;;;;6.77;5.00;;;;;;;14.45;51.34;97923.88;5029991;28;20780;-70
2023/05/04 00:07:28;;;;;;;6.57;5.23;;;;;;;14.48;51.15;97920.94;5031148;28;20222;-70
2023/05/04 00:09:54;;;;;;;9.00;5.77;;;;;;;14.49;50.95;97914.63;5034249;28;20454;-70
2023/05/04 00:12:19;;;;;;;6.30;5.67;;;;;;;14.48;51.17;97917.44;5038715;28;20195;-71
2023/05/04 00:14:45;;;;;;;5.87;5.27;;;;;;;14.27;51.38;97911.59;5030130;28;20564;-70
2023/05/04 00:17:11;;;;;;;7.10;4.87;;;;;;;14.35;51.42;97910.00;5026102;28;20556;-70
2023/05/04 00:19:39;;;;;;;10.80;5.60;;;;;;;14.36;50.91;97906.38;5029991;28;21661;-69
2023/05/04 00:22:04;;;;;;;6.47;5.10;;;;;;;14.27;51.40;97908.97;5037477;28;20510;-71
2023/05/04 00:24:30;;;;;;;5.70;4.90;;;;;;;14.23;51.58;97904.16;5039428;28;20926;-71
2023/05/04 00:26:55;;;;;;;8.03;6.00;;;;;;;14.24;51.70;97911.91;5043631;28;20187;-69
2023/05/04 00:29:21;;;;;;;6.57;5.97;;;;;;;14.20;51.73;97897.41;5031800;28;20628;-70
2023/05/04 00:31:46;;;;;;;6.97;5.07;;;;;;;14.20;51.84;97905.31;5033577;28;20557;-71
2023/05/04 00:34:11;;;;;;;6.50;5.47;;;;;;;14.11;51.92;97901.81;5045947;28;20239;-70
2023/05/04 00:36:37;;;;;;;7.00;5.47;;;;;;;14.16;51.79;97898.69;5033833;28;20302;-69
2023/05/04 00:39:02;;;;;;;12.33;5.30;;;;;;;14.10;51.95;97899.34;5036566;28;20234;-69
2023/05/04 00:41:28;;;;;;;6.27;5.23;;;;;;;14.08;51.69;97890.78;5034826;28;20223;-70
2023/05/04 00:43:53;;;;;;;6.40;5.43;;;;;;;14.08;51.85;97890.78;5029818;28;20203;-70
2023/05/04 00:46:19;;;;;;;6.33;5.73;;;;;;;14.05;52.01;97891.06;5034941;28;20192;-71
2023/05/04 00:48:46;;;;;;;7.80;6.57;;;;;;;13.96;51.96;97880.50;5027826;28;20198;-70
2023/05/04 00:51:13;;;;;;;6.60;5.80;;;;;;;13.97;52.08;97878.69;5036476;28;20192;-70
2023/05/04 00:53:40;;;;;;;11.47;6.30;;;;;;;13.90;52.06;97882.94;5031432;28;20488;-70
2023/05/04 00:56:06;;;;;;;8.20;5.73;;;;;;;13.95;51.96;97876.22;5032701;28;20899;-70
2023/05/04 00:58:32;;;;;;;8.43;5.60;;;;;;;13.86;52.30;97885.03;5029667;28;21185;-71
2023/05/04 01:00:58;;;;;;;8.00;6.60;;;;;;;13.80;51.98;97883.84;5039191;28;20452;-70
2023/05/04 01:03:24;;;;;;;7.30;6.27;;;;;;;13.77;52.42;97878.94;5030097;28;20829;-72
2023/05/04 01:06:05;;;;;;;6.77;5.90;;;;;;;13.75;52.22;97880.03;5033498;28;20218;-70
2023/05/04 01:08:33;;;;;;;6.03;5.43;;;;;;;13.76;52.25;97879.91;5037947;28;20433;-70
2023/05/04 01:11:19;;;;;;;9.87;6.00;;;;;;;13.83;51.88;97885.38;5042230;28;20454;-70
2023/05/04 01:13:46;;;;;;;7.90;5.37;;;;;;;13.83;51.77;97878.28;5038174;28;20879;-70
2023/05/04 01:16:12;;;;;;;7.67;5.70;;;;;;;13.85;51.94;97888.69;5031136;28;20428;-70
2023/05/04 01:18:38;;;;;;;8.07;6.40;;;;;;;13.85;51.97;97891.31;5032695;28;20984;-70
2023/05/04 01:21:03;;;;;;;6.93;5.40;;;;;;;13.70;52.30;97888.41;5044817;28;20301;-70
2023/05/04 01:23:28;;;;;;;7.27;5.83;;;;;;;13.60;52.10;97887.69;5030213;28;20275;-71
2023/05/04 01:26:13;;;;;;;7.40;6.70;;;;;;;13.55;52.62;97890.81;5036039;28;20192;-71
2023/05/04 01:28:52;;;;;;;6.40;5.53;;;;;;;13.61;52.55;97884.91;5033285;28;20187;-70
2023/05/04 01:31:20;;;;;;;7.30;5.77;;;;;;;13.66;52.36;97892.38;5030827;28;21184;-70
2023/05/04 01:33:46;;;;;;;6.67;5.97;;;;;;;13.71;52.14;97886.63;5029215;28;20557;-70
2023/05/04 01:36:12;;;;;;;6.63;5.47;;;;;;;13.70;52.22;97888.41;5041952;28;20434;-69
2023/05/04 01:38:37;;;;;;;8.10;5.57;;;;;;;13.68;52.33;97885.09;5035171;28;20593;-71
2023/05/04 01:41:03;;;;;;;6.90;6.00;;;;;;;13.71;52.07;97882.16;5031360;28;20219;-69
2023/05/04 01:43:29;;;;;;;10.00;6.97;;;;;;;13.71;52.34;97878.72;5047947;28;20290;-70
2023/05/04 01:45:55;;;;;;;12.53;9.37;;;;;;;13.58;52.64;97879.97;5037558;28;20533;-71
2023/05/04 01:48:20;;;;;;;16.13;9.60;;;;;;;13.62;52.34;97870.75;5029169;28;20214;-71
2023/05/04 01:50:46;;;;;;;11.60;7.27;;;;;;;13.67;52.41;97880.84;5041853;28;20283;-71
2023/05/04 01:53:11;;;;;;;8.57;6.57;;;;;;;13.63;52.50;97882.13;5033252;28;20192;-70
2023/05/04 01:55:37;;;;;;;9.20;7.47;;;;;;;13.56;52.74;97879.28;5034432;28;20723;-70
2023/05/04 01:58:02;;;;;;;9.23;7.23;;;;;;;13.52;52.93;97878.78;5039229;28;20239;-70
2023/05/04 02:00:27;;;;;;;11.07;7.70;;;;;;;13.51;52.63;97878.91;5040267;28;20301;-71
2023/05/04 02:02:53;;;;;;;8.67;7.13;;;;;;;13.51;52.79;97874.50;5028442;28;20202;-71
2023/05/04 02:05:18;;;;;;;8.03;7.03;;;;;;;13.55;52.63;97872.38;5036297;28;20644;-71
2023/05/04 02:07:44;;;;;;;10.90;7.47;;;;;;;13.58;52.62;97879.97;5034137;28;20198;-70
2023/05/04 02:10:10;;;;;;;10.57;7.80;;;;;;;13.48;52.67;97869.53;5032706;28;20227;-70
2023/05/04 02:12:35;;;;;;;7.77;6.87;;;;;;;13.50;52.68;97877.25;5034126;28;20196;-70
2023/05/04 02:15:01;;;;;;;11.70;8.00;;;;;;;13.51;52.56;97868.38;5038053;28;20434;-70
2023/05/04 02:17:26;;;;;;;10.50;7.70;;;;;;;13.43;52.72;97874.41;5031368;28;20191;-71
2023/05/04 02:19:52;;;;;;;9.00;7.00;;;;;;;13.38;53.13;97874.03;5045306;28;20211;-70
2023/05/04 02:22:17;;;;;;;8.80;7.00;;;;;;;13.40;52.68;97868.63;4975658;28;20578;-70
2023/05/04 02:24:43;;;;;;;9.67;6.60;;;;;;;13.34;53.07;97870.91;5038293;28;20198;-70
2023/05/04 02:27:08;;;;;;;10.93;7.07;;;;;;;13.30;53.18;97866.06;5028696;28;20222;-69
2023/05/04 02:29:34;;;;;;;9.20;7.60;;;;;;;13.25;53.55;97868.34;5033063;28;20590;-70
2023/05/04 02:31:59;;;;;;;7.80;7.00;;;;;;;13.28;53.33;97866.22;5030405;28;20198;-70
2023/05/04 02:34:25;;;;;;;7.90;7.07;;;;;;;13.25;53.37;97870.97;5029697;28;20286;-70
2023/05/04 02:36:50;;;;;;;9.20;7.20;;;;;;;13.18;53.42;97874.19;5038366;28;20215;-70
2023/05/04 02:39:16;;;;;;;9.07;6.90;;;;;;;13.20;53.53;97863.53;5023629;28;20230;-70
2023/05/04 02:41:41;;;;;;;9.00;7.27;;;;;;;13.22;53.08;97874.75;5037170;28;20191;-70
2023/05/04 02:44:07;;;;;;;12.33;8.00;;;;;;;13.13;53.55;97865.13;5033624;28;20221;-69
2023/05/04 02:46:32;;;;;;;17.13;7.63;;;;;;;13.13;53.52;97860.69;5032679;28;20283;-69
2023/05/04 02:48:57;;;;;;;10.43;8.40;;;;;;;13.17;53.85;97864.66;5037933;28;20262;-70
2023/05/04 02:51:23;;;;;;;11.93;8.20;;;;;;;13.17;53.74;97861.22;5035420;28;20274;-71
2023/05/04 02:53:48;;;;;;;11.70;7.93;;;;;;;13.17;53.88;97866.47;5038030;28;20278;-69
2023/05/04 02:56:14;;;;;;;11.57;8.43;;;;;;;13.22;53.79;97866.84;5038851;28;20194;-70
2023/05/04 02:58:40;;;;;;;12.23;8.80;;;;;;;13.17;53.71;97866.47;5032329;28;20673;-70
2023/05/04 03:01:05;;;;;;;10.43;9.03;;;;;;;13.08;53.93;97868.22;5035675;28;20455;-71
2023/05/04 03:03:31;;;;;;;10.90;9.30;;;;;;;13.12;53.68;97866.09;5038366;28;20800;-70
2023/05/04 03:05:56;;;;;;;13.67;8.17;;;;;;;13.05;54.00;97864.09;5039245;28;20686;-71
2023/05/04 03:08:22;;;;;;;10.20;9.03;;;;;;;13.02;54.06;97856.47;5039115;28;20188;-71
2023/05/04 03:10:47;;;;;;;10.30;8.90;;;;;;;12.97;54.09;97860.56;5041737;28;20219;-70
2023/05/04 03:13:13;;;;;;;12.40;9.13;;;;;;;13.01;54.16;97860.09;5050626;28;20226;-71
2023/05/04 03:15:38;;;;;;;11.83;9.23;;;;;;;13.04;53.91;97872.94;5044299;28;20230;-70
2023/05/04 03:18:04;;;;;;;12.83;8.47;;;;;;;13.06;53.79;97865.75;5037102;28;20361;-70
2023/05/04 03:20:29;;;;;;;14.93;8.90;;;;;;;12.87;54.05;97874.63;5036917;28;20272;-70
2023/05/04 03:22:55;;;;;;;13.53;9.20;;;;;;;12.85;54.18;97870.50;5035486;28;20678;-69
2023/05/04 03:25:20;;;;;;;13.30;9.10;;;;;;;12.85;53.98;97867.88;5045670;28;20199;-71
2023/05/04 03:27:46;;;;;;;10.23;9.13;;;;;;;12.83;54.64;97873.25;5037137;28;20191;-71
2023/05/04 03:30:12;;;;;;;9.60;8.60;;;;;;;12.84;54.57;97866.22;5036576;28;20211;-70
2023/05/04 03:32:37;;;;;;;14.60;8.90;;;;;;;12.79;54.50;97863.19;5030466;28;20195;-70
2023/05/04 03:35:03;;;;;;;11.10;9.00;;;;;;;12.77;54.73;97870.41;5045061;28;20428;-70
2023/05/04 03:37:28;;;;;;;13.53;9.37;;;;;;;12.73;54.42;97865.44;5038018;28;20192;-70
2023/05/04 03:39:54;;;;;;;9.20;8.23;;;;;;;12.67;55.08;97867.84;5034705;28;20637;-70
2023/05/04 03:42:19;;;;;;;11.67;9.30;;;;;;;12.68;54.46;97862.44;5037023;28;20222;-69
2023/05/04 03:44:45;;;;;;;11.40;9.03;;;;;;;12.61;54.64;97871.88;5039913;28;20724;-70
2023/05/04 03:47:10;;;;;;;11.67;9.30;;;;;;;12.62;54.80;97859.59;5036540;28;20190;-70
2023/05/04 03:49:36;;;;;;;12.53;8.60;;;;;;;12.58;54.59;97867.75;5038426;28;20865;-70
2023/05/04 03:52:01;;;;;;;13.93;8.90;;;;;;;12.53;54.87;97863.91;5044962;28;20191;-70
2023/05/04 03:54:27;;;;;;;12.00;9.40;;;;;;;12.59;54.83;97855.44;5029594;28;20272;-69
2023/05/04 03:56:52;;;;;;;9.83;8.67;;;;;;;12.44;55.18;97849.88;5030676;28;20724;-68
2023/05/04 03:59:18;;;;;;;10.80;8.80;;;;;;;12.34;55.51;97855.19;5031048;28;20719;-69
2023/05/04 04:01:43;;;;;;;11.63;9.63;;;;;;;12.38;55.62;97856.53;5032888;28;20286;-70
2023/05/04 04:04:09;;;;;;;10.27;8.97;;;;;;;12.39;55.01;97857.38;5035765;28;20198;-69
2023/05/04 04:06:34;;;;;;;10.00;9.00;;;;;;;12.44;55.04;97861.22;5038972;28;20283;-69
2023/05/04 04:09:00;;;;;;;11.27;9.63;;;;;;;12.46;55.29;97855.00;5037239;28;20182;-70
2023/05/04 04:11:25;;;;;;;12.40;9.20;;;;;;;12.48;55.16;97853.84;5030527;28;20906;-70
2023/05/04 04:13:51;;;;;;;12.30;9.10;;;;;;;12.43;54.83;97859.56;5044315;28;20183;-68
2023/05/04 04:16:16;;;;;;;12.30;9.23;;;;;;;12.42;54.98;97846.53;5039842;28;20191;-69
2023/05/04 04:18:42;;;;;;;12.03;9.50;;;;;;;12.45;55.22;97859.41;5033880;28;20207;-70
2023/05/04 04:21:09;;;;;;;11.87;9.83;;;;;;;12.51;54.98;97856.19;5037377;28;20238;-71
2023/05/04 04:23:34;;;;;;;11.63;10.17;;;;;;;12.50;55.12;97858.94;5035358;28;20195;-72
2023/05/04 04:26:00;;;;;;;11.83;9.63;;;;;;;12.49;55.11;97852.88;5037643;28;20958;-70
2023/05/04 04:28:25;;;;;;;20.53;9.50;;;;;;;12.49;55.27;97850.25;5035110;28;20284;-70
2023/05/04 04:30:51;;;;;;;18.13;9.93;;;;;;;12.43;55.19;97853.47;5033982;28;20266;-72
2023/05/04 04:33:17;;;;;;;12.50;10.40;;;;;;;12.46;55.79;97855.00;5038856;28;20191;-69
2023/05/04 04:35:43;;;;;;;15.40;10.70;;;;;;;12.44;55.43;97848.06;5032279;28;20564;-70
2023/05/04 04:38:08;;;;;;;22.60;10.30;;;;;;;12.41;55.81;97845.72;5044834;28;20210;-69
2023/05/04 04:40:34;;;;;;;16.23;10.50;;;;;;;12.42;55.75;97847.38;5039059;28;20315;-70
2023/05/04 04:43:00;;;;;;;16.10;11.10;;;;;;;12.40;55.86;97849.34;5045952;28;20219;-70
2023/05/04 04:45:26;;;;;;;13.73;10.50;;;;;;;12.40;56.45;97853.78;5036002;28;20522;-70
2023/05/04 04:47:51;;;;;;;13.20;10.10;;;;;;;12.47;56.33;97851.38;5040296;28;20190;-70
2023/05/04 04:50:18;;;;;;;14.60;9.57;;;;;;;12.56;56.03;97845.22;5041516;28;20238;-69
2023/05/04 04:52:44;;;;;;;11.93;9.33;;;;;;;12.57;56.06;97839.81;5038324;28;20188;-71
2023/05/04 04:55:09;;;;;;;10.03;9.03;;;;;;;12.58;55.65;97841.47;5036729;28;21020;-70
2023/05/04 04:57:35;;;;;;;13.20;10.50;;;;;;;12.60;56.22;97833.44;5038818;28;20509;-69
2023/05/04 05:00:00;;;;;;;17.60;11.17;;;;;;;12.60;56.38;97838.72;5039315;28;20217;-69
2023/05/04 05:02:27;;;;;;;12.80;9.80;;;;;;;12.64;56.35;97834.78;5031753;28;20187;-70
2023/05/04 05:04:53;;;;;;;14.57;10.20;;;;;;;12.66;56.50;97832.81;5042418;28;20195;-70
2023/05/04 05:07:18;;;;;;;12.50;10.20;;;;;;;12.68;56.37;97835.31;5036489;28;20437;-69
2023/05/04 05:09:44;;;;;;;12.13;9.40;;;;;;;12.70;56.60;97834.19;5031947;28;20466;-70
2023/05/04 05:12:09;;;;;;;15.73;10.27;;;;;;;12.65;56.89;97831.19;5044655;28;20679;-69
2023/05/04 05:14:35;;;;;;;14.30;9.97;;;;;;;12.67;57.06;97831.84;5041105;28;20321;-70
2023/05/04 05:17:02;;;;;;;14.80;10.10;;;;;;;12.74;56.95;97822.38;5037925;28;20277;-71
2023/05/04 05:19:28;;;;;;;15.10;10.23;;;;;;;12.85;57.07;97831.84;5032086;28;20214;-70
2023/05/04 05:21:54;;;;;;;10.37;9.27;;;;;;;12.95;57.23;97826.50;5041795;28;20417;-73
2023/05/04 05:24:19;;;;;;;12.53;10.13;;;;;;;13.03;57.00;97823.94;5036533;28;20680;-71
2023/05/04 05:26:45;;;;;;;13.10;10.47;;;;;;;13.13;56.84;97823.84;5030689;28;20249;-71
2023/05/04 05:29:10;;;;;;;12.03;9.60;;;;;;;13.23;56.83;97823.75;5027481;28;20350;-69
2023/05/04 05:31:35;;;;;;;14.23;12.03;;;;;;;13.35;57.19;97833.06;5042808;28;20273;-71
2023/05/04 05:34:01;;;;;;;14.50;11.20;;;;;;;13.52;56.57;97827.91;5032657;28;20278;-72
2023/05/04 05:36:26;;;;;;;15.87;12.00;;;;;;;13.65;55.79;97838.84;5036219;28;20221;-71
2023/05/04 05:38:52;;;;;;;15.87;11.97;;;;;;;13.79;56.28;97831.34;5041519;28;20668;-72
2023/05/04 05:41:17;;;;;;;17.43;12.90;;;;;;;13.89;56.04;97824.13;5033309;28;20219;-71
2023/05/04 05:43:43;;;;;;;16.67;12.30;;;;;;;14.03;55.74;97829.78;5034160;28;20565;-70
2023/05/04 05:46:09;;;;;;;18.53;13.87;;;;;;;14.11;55.16;97837.75;5042612;28;20186;-71
2023/05/04 05:48:34;;;;;;;17.33;13.30;;;;;;;14.23;55.07;97831.19;5029010;28;20190;-71
2023/05/04 05:51:00;;;;;;;18.63;13.80;;;;;;;14.34;54.63;97829.25;5029276;28;20218;-71
2023/05/04 05:53:25;;;;;;;17.13;13.60;;;;;;;14.50;54.82;97831.09;5029482;28;20214;-72
2023/05/04 05:55:51;;;;;;;19.97;13.33;;;;;;;14.71;55.01;97830.66;5027914;28;20321;-72
2023/05/04 05:58:16;;;;;;;21.50;12.27;;;;;;;14.93;55.16;97833.63;5026777;28;20230;-70
2023/05/04 06:00:42;;;;;;;17.00;13.13;;;;;;;15.11;54.41;97834.31;5023786;28;20863;-72
2023/05/04 06:03:07;;;;;;;19.93;14.67;;;;;;;15.29;53.62;97820.06;5026978;28;20768;-71
2023/05/04 06:05:33;;;;;;;16.80;12.43;;;;;;;15.49;52.97;97821.38;5028326;28;20246;-71
2023/05/04 06:07:58;;;;;;;13.73;12.00;;;;;;;15.71;52.67;97823.44;5020394;28;20326;-71
2023/05/04 06:10:24;;;;;;;13.37;11.93;;;;;;;15.92;51.82;97826.38;5024640;28;20249;-71
2023/05/04 06:12:49;;;;;;;14.73;12.33;;;;;;;16.06;50.42;97830.13;5024066;28;20191;-70
2023/05/04 06:15:15;;;;;;;15.97;12.20;;;;;;;16.18;50.23;97827.09;5028562;28;20204;-71
2023/05/04 06:17:41;;;;;;;14.10;11.13;;;;;;;16.37;49.98;97823.19;5029477;28;20226;-71
2023/05/04 06:20:07;;;;;;;18.43;12.10;;;;;;;16.51;48.65;97826.91;5031251;28;20216;-71
2023/05/04 06:22:32;;;;;;;14.83;12.40;;;;;;;16.70;48.79;97826.44;5027442;28;20207;-72
2023/05/04 06:24:57;;;;;;;12.33;11.03;;;;;;;16.90;48.80;97820.66;5028632;28;20791;-70
2023/05/04 06:27:24;;;;;;;13.67;12.17;;;;;;;17.01;47.97;97814.97;5027821;28;20188;-72
2023/05/04 06:29:50;;;;;;;16.30;12.30;;;;;;;17.19;47.46;97822.63;5027533;28;20632;-72
2023/05/04 06:32:16;;;;;;;15.13;12.67;;;;;;;17.40;47.84;97814.97;5024105;28;20447;-72
2023/05/04 06:34:41;;;;;;;11.33;10.20;;;;;;;17.52;46.96;97816.16;5026115;28;20924;-71
2023/05/04 06:37:07;;;;;;;26.30;12.47;;;;;;;17.67;46.97;97808.22;5019096;28;20199;-71
2023/05/04 06:39:32;;;;;;;17.53;11.30;;;;;;;17.80;46.40;97810.22;5027474;28;20215;-69
2023/05/04 06:41:58;;;;;;;12.07;10.47;;;;;;;17.94;45.99;97811.22;5033474;28;20203;-71
2023/05/04 06:44:24;;;;;;;16.00;12.47;;;;;;;18.03;45.01;97814.63;5032264;28;20682;-71
2023/05/04 06:46:50;;;;;;;14.93;11.33;;;;;;;18.09;44.58;97813.88;5031686;28;20183;-71
2023/05/04 06:49:16;;;;;;;13.03;11.67;;;;;;;18.28;45.21;97815.13;5031554;28;20183;-71
2023/05/04 06:51:42;;;;;;;11.57;10.37;;;;;;;18.50;45.36;97818.66;5035964;28;20269;-71
2023/05/04 06:54:07;;;;;;;11.60;10.40;;;;;;;18.71;45.07;97825.78;5032634;28;20514;-70
2023/05/04 06:56:33;;;;;;;13.10;11.53;;;;;;;18.88;44.16;97815.75;5032137;28;20191;-71
2023/05/04 06:58:58;;;;;;;10.80;9.70;;;;;;;19.05;44.17;97815.47;5031612;28;20219;-71
2023/05/04 07:01:24;;;;;;;11.67;10.43;;;;;;;19.14;43.33;97818.81;5037603;28;20215;-72
2023/05/04 07:03:49;;;;;;;12.60;10.47;;;;;;;19.21;42.74;97817.06;5032224;28;20219;-72
2023/05/04 07:06:15;;;;;;;11.90;10.70;;;;;;;19.32;42.79;97815.69;5031703;28;20202;-71
2023/05/04 07:08:40;;;;;;;11.83;10.63;;;;;;;19.40;42.57;97812.91;5040572;28;20562;-72
2023/05/04 07:11:08;;;;;;;11.67;10.43;;;;;;;19.53;42.24;97811.34;5038982;28;20218;-70
2023/05/04 07:13:33;;;;;;;11.40;10.20;;;;;;;19.57;41.60;97807.25;5042230;28;20206;-71
2023/05/04 07:15:59;;;;;;;13.03;11.17;;;;;;;19.68;42.01;97806.72;5038263;28;20520;-71
2023/05/04 07:18:24;;;;;;;11.93;9.97;;;;;;;19.94;41.72;97810.56;5038848;28;20215;-72
2023/05/04 07:20:50;;;;;;;15.93;9.93;;;;;;;20.03;40.58;97805.91;5042047;28;20311;-72
2023/05/04 07:23:15;;;;;;;12.13;10.50;;;;;;;19.98;39.90;97808.31;5041779;28;20262;-71
2023/05/04 07:25:41;;;;;;;10.27;9.30;;;;;;;20.04;39.81;97812.84;5043021;28;20187;-71
2023/05/04 07:28:07;;;;;;;9.57;8.60;;;;;;;20.16;39.60;97807.81;5039582;28;20855;-71
2023/05/04 07:30:32;;;;;;;11.00;8.73;;;;;;;20.10;39.51;97807.56;5044804;28;20549;-71
2023/05/04 07:32:57;;;;;;;11.70;8.63;;;;;;;20.27;39.62;97807.22;5033659;28;20688;-71
2023/05/04 07:35:23;;;;;;;10.63;9.67;;;;;;;20.23;39.16;97805.97;5042294;28;20282;-71
2023/05/04 07:37:48;;;;;;;11.87;8.83;;;;;;;20.16;38.88;97805.94;5035406;28;20258;-71
2023/05/04 07:40:15;;;;;;;9.73;8.53;;;;;;;19.92;38.59;97809.94;5034238;28;20237;-72
2023/05/04 07:42:41;;;;;;;12.40;8.80;;;;;;;20.12;39.30;97806.53;5041104;28;20478;-71
2023/05/04 07:45:07;;;;;;;8.93;8.10;;;;;;;20.33;38.48;97811.72;5041188;28;20523;-71
2023/05/04 07:47:33;;;;;;;12.70;9.60;;;;;;;20.44;39.09;97809.50;5052363;28;20193;-72
2023/05/04 07:49:59;;;;;;;13.43;9.00;;;;;;;20.16;38.55;97797.97;5047050;28;21093;-70
2023/05/04 07:52:24;;;;;;;10.27;9.23;;;;;;;20.16;38.50;97811.28;5039323;28;20591;-70
2023/05/04 07:54:53;;;;;;;13.43;8.43;;;;;;;20.42;38.51;97807.03;5050026;28;20195;-70
2023/05/04 07:57:19;;;;;;;10.77;8.07;;;;;;;20.83;38.67;97799.97;5037843;28;20251;-71
2023/05/04 07:59:45;;;;;;;13.80;9.93;;;;;;;21.05;38.33;97803.25;5042097;28;20553;-72
2023/05/04 08:02:10;;;;;;;9.90;8.90;;;;;;;21.37;38.42;97799.97;5034272;28;20603;-72
2023/05/04 08:04:35;;;;;;;9.57;8.60;;;;;;;21.59;37.13;97797.88;5036613;28;20191;-73
2023/05/04 08:07:01;;;;;;;8.33;7.60;;;;;;;21.73;37.18;97799.50;5030182;28;20207;-71
2023/05/04 08:09:26;;;;;;;9.70;7.13;;;;;;;21.94;35.80;97795.72;5035621;28;20212;-72
2023/05/04 08:11:52;;;;;;;8.60;7.73;;;;;;;21.98;34.76;97795.31;5046673;28;20209;-71
2023/05/04 08:14:17;;;;;;;12.00;7.57;;;;;;;22.28;35.10;97784.09;5034539;28;20659;-71
2023/05/04 08:16:43;;;;;;;9.10;7.70;;;;;;;22.46;35.58;97792.22;5032999;28;20281;-71
2023/05/04 08:19:08;;;;;;;11.20;7.60;;;;;;;22.61;34.86;97788.44;5041008;28;20211;-71
2023/05/04 08:21:34;;;;;;;7.37;6.67;;;;;;;22.45;33.66;97782.56;5043464;28;20195;-72
2023/05/04 08:23:59;;;;;;;7.60;6.90;;;;;;;22.67;33.90;97780.38;5035291;28;20210;-70
2023/05/04 08:26:25;;;;;;;7.40;6.70;;;;;;;22.91;33.60;97782.47;5038521;28;20223;-70
2023/05/04 08:28:50;;;;;;;7.67;6.83;;;;;;;22.47;33.43;97785.84;5033809;28;20187;-71
2023/05/04 08:31:20;;;;;;;11.07;7.20;;;;;;;22.82;33.46;97779.25;5037812;28;20330;-70
2023/05/04 08:33:45;;;;;;;7.07;6.37;;;;;;;23.08;32.84;97783.53;5032669;28;20187;-70
2023/05/04 08:36:11;;;;;;;7.20;6.50;;;;;;;23.10;32.84;97784.16;5035727;28;20433;-70
2023/05/04 08:38:36;;;;;;;7.20;6.50;;;;;;;23.33;32.65;97782.72;5032163;28;20655;-71
2023/05/04 08:41:05;;;;;;;7.63;6.90;;;;;;;23.41;31.53;97771.75;5035786;28;20242;-70
2023/05/04 08:43:35;;;;;;;8.07;6.67;;;;;;;23.66;32.00;97776.25;5038085;28;20211;-70
2023/05/04 08:46:00;;;;;;;12.80;6.60;;;;;;;23.86;32.09;97778.69;5039630;28;20433;-70
2023/05/04 08:48:26;;;;;;;12.70;7.00;;;;;;;23.77;31.71;97775.50;5028677;28;20864;-69
2023/05/04 08:50:51;;;;;;;8.70;6.43;;;;;;;24.00;31.28;97770.53;5032880;28;20212;-71
2023/05/04 08:53:18;;;;;;;7.23;6.50;;;;;;;24.21;31.74;97769.19;5034286;28;20321;-70
2023/05/04 08:55:46;;;;;;;7.30;6.40;;;;;;;24.41;31.19;97762.75;5031615;28;20196;-69
2023/05/04 08:58:12;;;;;;;7.57;6.77;;;;;;;24.49;31.31;97765.09;5033964;28;20471;-70
2023/05/04 09:00:38;;;;;;;8.33;6.80;;;;;;;24.67;30.49;97759.69;5036904;28;20473;-71
2023/05/04 09:03:09;;;;;;;6.30;5.80;;;;;;;24.80;29.91;97756.00;5031117;28;20431;-71
2023/05/04 09:05:35;;;;;;;9.73;6.20;;;;;;;24.66;29.67;97765.25;5034950;28;20195;-71
2023/05/04 09:08:00;;;;;;;6.73;6.13;;;;;;;24.77;29.79;97755.66;5031658;28;20783;-71
2023/05/04 09:10:26;;;;;;;11.30;6.07;;;;;;;24.68;29.87;97758.66;5038612;28;20449;-71
2023/05/04 09:12:53;;;;;;;8.50;6.50;;;;;;;24.78;28.97;97755.41;5049139;28;20668;-70
2023/05/04 09:15:19;;;;;;;6.00;5.40;;;;;;;24.97;30.06;97744.59;5033372;28;20648;-71
2023/05/04 09:18:06;;;;;;;7.40;6.70;;;;;;;24.83;29.38;97747.50;5033539;28;20429;-70
2023/05/04 09:20:42;;;;;;;6.63;6.00;;;;;;;25.16;29.56;97747.97;5036947;28;20453;-71
2023/05/04 09:23:08;;;;;;;9.73;6.50;;;;;;;25.11;28.55;97746.00;5031573;28;20430;-71
2023/05/04 09:25:47;;;;;;;7.00;6.40;;;;;;;25.01;29.53;97737.75;5037761;28;20431;-70
2023/05/04 09:28:13;;;;;;;6.50;5.80;;;;;;;24.78;30.08;97744.69;5035398;28;20183;-70
2023/05/04 09:30:39;;;;;;;6.40;5.80;;;;;;;24.87;29.42;97744.38;5041647;28;21187;-70
2023/05/04 09:33:05;;;;;;;7.30;5.67;;;;;;;24.94;29.58;97735.16;5030370;28;20433;-71
2023/05/04 09:35:30;;;;;;;6.20;5.60;;;;;;;25.17;28.24;97736.22;5035491;28;20192;-71
2023/05/04 09:37:56;;;;;;;7.43;6.20;;;;;;;24.87;28.40;97739.81;5031561;28;20786;-71
2023/05/04 09:40:40;;;;;;;6.17;5.47;;;;;;;25.06;28.67;97737.03;5033050;28;20206;-70
2023/05/04 09:43:09;;;;;;;6.13;5.60;;;;;;;25.23;29.14;97731.78;5039184;28;20998;-71
2023/05/04 09:45:42;;;;;;;7.63;5.97;;;;;;;25.55;28.96;97732.22;5039840;28;20959;-71
2023/05/04 09:48:17;;;;;;;5.90;5.40;;;;;;;25.96;28.71;97728.72;5047786;28;20430;-72
2023/05/04 09:51:03;;;;;;;5.87;5.30;;;;;;;26.18;28.04;97726.19;5030242;28;21216;-72
2023/05/04 09:53:29;;;;;;;6.20;5.10;;;;;;;26.25;27.52;97720.69;5040335;28;20503;-71
2023/05/04 09:55:58;;;;;;;6.20;5.60;;;;;;;25.74;27.40;97724.00;5043239;28;20454;-70
2023/05/04 09:58:24;;;;;;;6.00;5.40;;;;;;;25.94;26.90;97720.91;5033039;28;20473;-69
2023/05/04 10:00:52;;;;;;;6.27;5.67;;;;;;;26.05;27.06;97721.91;5034702;28;20939;-70
2023/05/04 10:03:18;;;;;;;7.47;4.27;;;;;;;26.32;27.08;97724.84;5031691;28;20438;-69
2023/05/04 10:05:44;;;;;;;5.90;5.10;;;;;;;26.14;26.58;97715.13;5027863;28;20487;-72
2023/05/04 10:08:10;;;;;;;5.33;4.43;;;;;;;26.65;27.43;97719.75;5029708;28;20419;-71
2023/05/04 10:10:37;;;;;;;5.80;4.53;;;;;;;26.86;25.79;97715.53;5037834;28;20245;-72
2023/05/04 10:13:02;;;;;;;5.07;4.13;;;;;;;27.00;25.87;97721.38;5038167;28;20467;-70
2023/05/04 10:15:28;;;;;;;5.37;4.87;;;;;;;26.97;24.48;97711.94;5033194;28;20808;-71
2023/05/04 10:18:19;;;;;;;5.20;4.40;;;;;;;27.06;23.94;97708.81;5034276;28;20214;-72
2023/05/04 10:21:16;;;;;;;5.50;3.70;;;;;;;27.00;24.72;97707.13;5033786;28;20219;-70
2023/05/04 10:24:02;;;;;;;4.53;4.10;;;;;;;26.86;24.34;97709.34;5029988;28;20434;-70
2023/05/04 10:26:49;;;;;;;5.60;3.90;;;;;;;26.87;24.12;97706.41;5036858;28;20422;-71
2023/05/04 10:29:15;;;;;;;10.20;4.40;;;;;;;26.26;24.62;97703.50;5045515;28;20578;-71
2023/05/04 10:31:42;;;;;;;4.50;3.87;;;;;;;26.69;24.43;97702.09;5050367;28;20979;-72
2023/05/04 10:34:07;;;;;;;4.67;3.60;;;;;;;27.22;24.75;97696.41;5035419;28;20219;-72
2023/05/04 10:36:37;;;;;;;7.60;3.53;;;;;;;27.58;23.39;97694.22;5047131;28;20792;-73
2023/05/04 10:39:16;;;;;;;5.80;3.77;;;;;;;27.18;23.06;97700.66;5049061;28;20281;-72
2023/05/04 10:42:03;;;;;;;4.90;3.70;;;;;;;27.32;23.27;97687.66;5036873;28;20917;-71
2023/05/04 10:44:47;;;;;;;4.13;3.53;;;;;;;27.66;23.69;97683.00;5025703;28;20431;-71
2023/05/04 10:47:13;;;;;;;5.23;3.60;;;;;;;27.87;22.75;97675.94;5027612;28;20445;-71
2023/05/04 10:49:38;;;;;;;6.60;3.43;;;;;;;27.94;23.10;97664.16;5028039;28;20967;-71
2023/05/04 10:52:03;;;;;;;4.30;3.90;;;;;;;27.96;22.56;97672.78;5032981;28;20269;-71
2023/05/04 10:54:29;;;;;;;4.23;3.77;;;;;;;28.06;22.63;97659.44;5036161;28;20191;-70
2023/05/04 10:57:12;;;;;;;4.27;3.70;;;;;;;28.18;22.19;97670.09;5034048;28;20227;-71
2023/05/04 10:59:38;;;;;;;6.30;3.77;;;;;;;28.31;22.17;97656.19;5028864;28;20316;-72
2023/05/04 11:02:04;;;;;;;6.50;3.63;;;;;;;28.36;22.02;97650.81;5037009;28;20437;-72
2023/05/04 11:04:30;;;;;;;4.23;3.47;;;;;;;28.45;21.85;97659.25;5035752;28;20437;-72
2023/05/04 11:07:04;;;;;;;4.50;3.63;;;;;;;28.42;21.37;97653.56;5029373;28;21104;-71
2023/05/04 11:09:40;;;;;;;3.77;3.47;;;;;;;27.85;21.39;97655.75;5025640;28;20951;-71
2023/05/04 11:12:09;;;;;;;5.17;3.40;;;;;;;27.85;22.25;97644.97;5038848;28;20520;-71
2023/05/04 11:14:40;;;;;;;3.73;3.40;;;;;;;27.92;21.14;97642.88;5043704;28;20444;-71
2023/05/04 11:17:09;;;;;;;8.67;3.80;;;;;;;28.15;21.77;97638.25;5033278;28;20526;-71
2023/05/04 11:19:35;;;;;;;3.93;3.57;;;;;;;28.61;22.29;97630.53;5033856;28;20481;-72
2023/05/04 11:22:03;;;;;;;5.27;4.00;;;;;;;28.65;21.80;97634.34;5038311;28;20461;-71
2023/05/04 11:24:38;;;;;;;5.80;3.53;;;;;;;28.64;21.67;97624.63;5040786;28;20737;-71